Time;durP1;ratioP1;P1;durP2;ratioP2;P2;SDS_P1;SDS_P2;PMS_P1;PMS_P2;Temp;Humidity;BMP_temperature;BMP_pressure;BME280_temperature;BME280_humidity;BME280_pressure;Samples;Min_cycle;Max_cycle;Signal;HPM_P1;HPM_P2
2022/03/18 00:02:25;;;;;;;10.57;5.60;;;3.00;99.90;;;;;;5096063;28;20105;-71
2022/03/18 00:04:53;;;;;;;12.82;5.13;;;3.00;99.90;;;;;;5095669;28;20052;-71
2022/03/18 00:07:22;;;;;;;12.90;5.00;;;3.00;99.90;;;;;;5096567;28;20044;-72
2022/03/18 00:09:49;;;;;;;18.00;4.90;;;3.00;99.90;;;;;;5095892;28;20488;-72
2022/03/18 00:12:16;;;;;;;16.63;6.10;;;3.00;99.90;;;;;;5095503;28;20110;-73
2022/03/18 00:14:44;;;;;;;12.65;6.35;;;3.00;99.90;;;;;;5077878;28;20097;-72
2022/03/18 00:17:11;;;;;;;15.35;5.00;;;3.00;99.90;;;;;;5077948;28;20549;-72
2022/03/18 00:19:40;;;;;;;11.98;5.20;;;3.00;99.90;;;;;;5073644;28;20056;-72
2022/03/18 00:22:07;;;;;;;18.70;5.90;;;3.00;99.90;;;;;;5075738;28;20044;-72
2022/03/18 00:24:36;;;;;;;9.55;4.75;;;2.90;99.90;;;;;;5057102;28;20102;-72
2022/03/18 00:27:04;;;;;;;19.45;5.95;;;2.90;99.90;;;;;;5057512;28;20053;-72
2022/03/18 00:29:31;;;;;;;12.77;5.60;;;2.90;99.90;;;;;;5075496;28;20048;-72
2022/03/18 00:31:59;;;;;;;12.73;5.20;;;2.90;99.90;;;;;;5074232;28;20067;-72
2022/03/18 00:34:25;;;;;;;15.32;5.82;;;2.90;99.90;;;;;;5095677;28;20105;-72
2022/03/18 00:36:54;;;;;;;17.98;5.97;;;2.80;99.90;;;;;;5077592;28;20055;-72
2022/03/18 00:39:21;;;;;;;15.65;5.95;;;2.80;99.90;;;;;;5094921;28;20048;-72
2022/03/18 00:41:49;;;;;;;15.60;5.80;;;2.80;99.90;;;;;;5095380;28;20044;-72
2022/03/18 00:44:16;;;;;;;14.85;5.25;;;2.80;99.90;;;;;;5095524;28;20051;-73
2022/03/18 00:46:43;;;;;;;13.57;6.22;;;2.80;99.90;;;;;;5094843;28;20052;-72
2022/03/18 00:52:05;;;;;;;13.98;5.93;;;2.80;99.90;;;;;;5077240;28;20063;-73
2022/03/18 00:54:34;;;;;;;17.60;6.13;;;2.80;99.90;;;;;;5076915;28;20105;-73
2022/03/18 00:57:02;;;;;;;20.83;6.97;;;2.70;99.90;;;;;;5077318;28;20051;-74
2022/03/18 00:59:29;;;;;;;17.02;6.93;;;2.70;99.90;;;;;;5094788;28;20040;-73
2022/03/18 01:01:57;;;;;;;14.77;6.53;;;2.70;99.90;;;;;;5077230;28;20040;-73
2022/03/18 01:04:25;;;;;;;11.90;6.68;;;2.70;99.90;;;;;;5077103;28;20095;-72
2022/03/18 01:06:52;;;;;;;14.90;6.55;;;2.70;99.90;;;;;;5094503;28;20056;-73
2022/03/18 01:09:20;;;;;;;13.80;6.90;;;2.70;99.90;;;;;;5076774;28;20071;-73
2022/03/18 01:11:47;;;;;;;11.60;5.63;;;2.70;99.90;;;;;;5076582;28;20094;-72
2022/03/18 01:14:15;;;;;;;14.32;6.90;;;2.70;99.90;;;;;;5075915;28;20532;-72
2022/03/18 01:16:43;;;;;;;12.05;6.72;;;2.60;99.90;;;;;;5076884;28;20487;-72
2022/03/18 01:19:10;;;;;;;11.00;5.45;;;2.60;99.90;;;;;;5094885;28;20465;-72
2022/03/18 01:21:37;;;;;;;15.65;6.95;;;2.60;99.90;;;;;;5076258;28;20052;-72
2022/03/18 01:24:04;;;;;;;13.98;6.90;;;2.60;99.90;;;;;;5076668;28;20078;-72
2022/03/18 01:26:31;;;;;;;13.10;6.13;;;2.60;99.90;;;;;;5094663;28;20089;-72
2022/03/18 01:28:58;;;;;;;16.65;6.93;;;2.60;99.90;;;;;;5075417;28;20082;-73
2022/03/18 01:31:27;;;;;;;13.70;6.70;;;2.60;99.90;;;;;;5094377;28;20089;-72
2022/03/18 01:33:54;;;;;;;20.23;7.97;;;2.60;99.90;;;;;;5076648;28;20060;-73
2022/03/18 01:36:21;;;;;;;16.08;7.82;;;2.60;99.90;;;;;;5093949;28;20056;-72
2022/03/18 01:38:48;;;;;;;13.20;7.25;;;2.60;99.90;;;;;;5094412;28;20120;-72
2022/03/18 01:41:15;;;;;;;20.35;8.25;;;2.60;99.90;;;;;;5094574;28;20412;-73
2022/03/18 01:43:46;;;;;;;13.88;7.22;;;2.60;99.90;;;;;;5075914;28;20097;-73
2022/03/18 01:46:14;;;;;;;15.77;6.95;;;2.60;99.90;;;;;;5093981;28;20051;-73
2022/03/18 01:48:42;;;;;;;12.48;6.43;;;2.60;99.90;;;;;;5094412;28;20395;-74
2022/03/18 01:51:10;;;;;;;20.00;8.52;;;2.60;99.90;;;;;;5075950;28;20048;-73
2022/03/18 01:53:39;;;;;;;13.38;6.95;;;2.60;99.90;;;;;;5094059;28;20048;-74
2022/03/18 01:56:07;;;;;;;17.27;7.32;;;2.60;99.90;;;;;;5093550;28;20047;-71
2022/03/18 01:58:34;;;;;;;17.88;7.63;;;2.60;99.90;;;;;;5094249;28;20052;-72
2022/03/18 02:01:02;;;;;;;16.42;7.55;;;2.60;99.90;;;;;;5075723;28;20040;-72
2022/03/18 02:03:29;;;;;;;18.98;7.63;;;2.70;99.90;;;;;;5075311;28;20048;-72
2022/03/18 02:05:58;;;;;;;16.38;7.60;;;2.60;99.90;;;;;;5093993;28;20476;-72
2022/03/18 02:08:25;;;;;;;16.75;8.07;;;2.60;99.90;;;;;;5072025;28;20082;-72
2022/03/18 02:10:53;;;;;;;19.00;7.78;;;2.60;99.90;;;;;;5072733;28;20075;-72
2022/03/18 02:13:20;;;;;;;16.83;8.20;;;2.60;99.90;;;;;;5073379;28;20393;-72
2022/03/18 02:15:46;;;;;;;21.00;8.15;;;2.60;99.90;;;;;;5072908;28;20044;-72
2022/03/18 02:18:13;;;;;;;22.00;8.60;;;2.60;99.90;;;;;;5055114;28;20048;-70
2022/03/18 02:20:40;;;;;;;13.90;8.38;;;2.60;99.90;;;;;;5055555;28;20094;-71
2022/03/18 02:23:08;;;;;;;15.02;8.48;;;2.60;99.90;;;;;;5091778;28;20048;-72
2022/03/18 02:25:35;;;;;;;15.57;8.18;;;2.60;99.90;;;;;;5092775;28;20145;-72
2022/03/18 02:28:04;;;;;;;15.20;8.05;;;2.60;99.90;;;;;;5093397;28;20407;-71
2022/03/18 02:30:34;;;;;;;21.08;8.48;;;2.60;99.90;;;;;;5093546;28;20048;-71
2022/03/18 02:33:01;;;;;;;17.88;8.77;;;2.60;99.90;;;;;;5075012;28;20403;-71
2022/03/18 02:35:28;;;;;;;14.48;8.35;;;2.60;99.90;;;;;;5075219;28;20043;-72
2022/03/18 02:37:56;;;;;;;18.17;9.05;;;2.60;99.90;;;;;;5093049;28;20052;-72
2022/03/18 02:40:25;;;;;;;19.67;8.70;;;2.60;99.90;;;;;;5091962;28;20052;-71
2022/03/18 02:42:52;;;;;;;19.73;8.73;;;2.60;99.90;;;;;;5093186;28;20051;-71
2022/03/18 02:45:19;;;;;;;17.30;9.05;;;2.60;99.90;;;;;;5074724;28;20052;-71
2022/03/18 02:47:45;;;;;;;16.77;9.18;;;2.60;99.90;;;;;;5075268;28;20105;-71
2022/03/18 02:50:12;;;;;;;15.18;8.55;;;2.60;99.90;;;;;;5092645;28;20500;-73
2022/03/18 02:52:40;;;;;;;15.15;8.55;;;2.60;99.90;;;;;;5092574;28;20488;-72
2022/03/18 02:55:09;;;;;;;17.20;8.93;;;2.60;99.90;;;;;;5093435;28;20094;-71
2022/03/18 02:57:37;;;;;;;16.23;8.20;;;2.60;99.90;;;;;;5074913;28;20109;-71
2022/03/18 03:00:06;;;;;;;16.40;8.88;;;2.60;99.90;;;;;;5074615;28;20515;-70
2022/03/18 03:02:33;;;;;;;15.07;8.63;;;2.60;99.90;;;;;;5092461;28;20040;-72
2022/03/18 03:08:02;;;;;;;14.52;8.18;;;2.50;99.90;;;;;;5092173;28;20058;-71
2022/03/18 03:10:30;;;;;;;18.17;8.23;;;2.50;99.90;;;;;;5074353;28;20048;-71
2022/03/18 03:12:59;;;;;;;15.88;8.15;;;2.50;99.90;;;;;;5074481;28;20052;-71
2022/03/18 03:15:26;;;;;;;14.45;7.47;;;2.40;99.90;;;;;;5091958;28;20143;-71
2022/03/18 03:17:53;;;;;;;13.75;8.35;;;2.40;99.90;;;;;;5092254;28;20422;-71
2022/03/18 03:20:20;;;;;;;13.05;7.10;;;2.40;99.90;;;;;;5091734;28;20101;-71
2022/03/18 03:22:47;;;;;;;15.95;7.65;;;2.40;99.90;;;;;;5092559;28;20117;-71
2022/03/18 03:25:14;;;;;;;14.80;7.70;;;2.40;99.90;;;;;;5092444;28;20087;-72
2022/03/18 03:27:41;;;;;;;15.05;7.10;;;2.40;99.90;;;;;;5091924;28;20098;-72
2022/03/18 03:30:11;;;;;;;16.90;7.60;;;2.30;99.90;;;;;;5074296;28;20055;-71
2022/03/18 03:32:39;;;;;;;14.30;7.75;;;2.30;99.90;;;;;;5092129;28;20105;-72
2022/03/18 03:35:07;;;;;;;15.80;7.97;;;2.30;99.90;;;;;;5073842;28;20185;-71
2022/03/18 03:37:33;;;;;;;19.17;8.20;;;2.30;99.90;;;;;;5074491;28;20056;-71
2022/03/18 03:40:00;;;;;;;14.30;8.02;;;2.30;99.90;;;;;;5074418;28;20048;-71
2022/03/18 03:42:27;;;;;;;16.45;8.73;;;2.30;99.90;;;;;;5073902;28;20048;-72
2022/03/18 03:44:54;;;;;;;16.60;8.10;;;2.30;99.90;;;;;;5091988;28;20557;-71
2022/03/18 03:47:22;;;;;;;18.58;7.90;;;2.40;99.90;;;;;;5074101;28;20105;-71
2022/03/18 03:49:49;;;;;;;18.25;8.65;;;2.40;99.90;;;;;;5073926;28;20056;-71
2022/03/18 03:52:17;;;;;;;17.83;8.32;;;2.40;99.90;;;;;;5092828;28;20101;-71
2022/03/18 03:54:44;;;;;;;14.02;8.98;;;2.50;99.90;;;;;;5078080;28;20048;-70
2022/03/18 03:57:10;;;;;;;14.63;8.93;;;2.50;99.90;;;;;;5077281;28;20550;-71
2022/03/18 03:59:37;;;;;;;15.05;9.05;;;2.60;99.90;;;;;;5077637;28;20056;-71
2022/03/18 04:02:04;;;;;;;15.40;8.27;;;2.60;99.90;;;;;;5096217;28;20117;-71
2022/03/18 04:04:33;;;;;;;19.77;7.93;;;2.70;99.90;;;;;;5095504;28;20048;-71
2022/03/18 04:07:00;;;;;;;14.48;8.40;;;2.80;99.90;;;;;;5095868;28;20048;-71
2022/03/18 04:09:27;;;;;;;13.63;8.73;;;2.80;99.90;;;;;;5077290;28;20080;-72
2022/03/18 04:11:54;;;;;;;18.77;8.18;;;2.90;99.90;;;;;;5077610;28;20051;-71
2022/03/18 04:14:21;;;;;;;18.67;8.63;;;3.00;99.90;;;;;;5077109;28;20048;-71
2022/03/18 04:16:48;;;;;;;18.35;9.55;;;3.10;99.90;;;;;;5077211;28;20451;-70
2022/03/18 04:19:15;;;;;;;17.65;8.48;;;3.20;99.90;;;;;;5095572;28;20119;-71
2022/03/18 04:21:43;;;;;;;12.02;8.18;;;3.20;99.90;;;;;;5095522;28;20085;-71
2022/03/18 04:24:11;;;;;;;15.38;8.55;;;3.30;99.90;;;;;;5095109;28;20052;-71
2022/03/18 04:26:38;;;;;;;14.20;8.52;;;3.40;99.90;;;;;;5077688;28;20056;-70
2022/03/18 04:29:05;;;;;;;17.52;7.07;;;3.50;99.90;;;;;;5075287;28;20071;-71
2022/03/18 04:31:32;;;;;;;14.55;7.65;;;3.60;99.90;;;;;;5074380;28;20052;-71
2022/03/18 04:33:59;;;;;;;16.27;8.88;;;3.70;99.90;;;;;;5075291;28;20098;-71
2022/03/18 04:36:25;;;;;;;18.02;8.52;;;3.70;99.90;;;;;;5075220;28;20447;-71
2022/03/18 04:38:54;;;;;;;18.27;8.63;;;3.80;99.90;;;;;;5074605;28;20055;-71
2022/03/18 04:41:21;;;;;;;14.82;7.55;;;3.80;99.90;;;;;;5086671;28;20403;-71
2022/03/18 04:43:48;;;;;;;14.00;8.20;;;3.90;99.90;;;;;;5077272;28;20074;-71
2022/03/18 04:46:15;;;;;;;15.73;8.02;;;3.90;99.90;;;;;;5076786;28;20381;-71
2022/03/18 04:48:42;;;;;;;12.90;7.57;;;3.90;99.90;;;;;;5095293;28;20056;-71
2022/03/18 04:51:09;;;;;;;14.60;8.60;;;4.00;99.90;;;;;;5095485;28;20364;-73
2022/03/18 04:53:36;;;;;;;13.18;8.10;;;4.00;99.90;;;;;;5096732;28;20048;-71
2022/03/18 04:56:05;;;;;;;13.38;8.00;;;4.00;99.90;;;;;;5097645;28;20048;-72
2022/03/18 04:58:32;;;;;;;14.85;8.38;;;4.00;99.90;;;;;;5077783;28;20054;-71
2022/03/18 05:00:59;;;;;;;11.32;8.60;;;4.00;99.90;;;;;;5094715;28;20060;-72
2022/03/18 05:03:26;;;;;;;11.23;7.75;;;4.00;99.90;;;;;;5076595;28;20075;-72
2022/03/18 05:05:53;;;;;;;12.10;7.50;;;3.90;99.90;;;;;;5076605;28;20052;-71
2022/03/18 05:08:20;;;;;;;16.23;8.07;;;3.90;99.90;;;;;;5094770;28;20044;-71
2022/03/18 05:10:48;;;;;;;16.02;8.48;;;3.80;99.90;;;;;;5095011;28;20048;-71
2022/03/18 05:13:17;;;;;;;18.00;9.02;;;3.80;99.90;;;;;;5075723;28;20105;-71
2022/03/18 05:15:44;;;;;;;19.67;8.48;;;3.70;99.90;;;;;;5094950;28;20174;-71
2022/03/18 05:18:11;;;;;;;13.18;8.13;;;3.70;99.90;;;;;;5094325;28;20501;-71
2022/03/18 05:20:38;;;;;;;17.35;8.43;;;3.60;99.90;;;;;;5075905;28;20122;-71
2022/03/18 05:23:04;;;;;;;13.57;8.07;;;3.60;99.90;;;;;;5072909;28;20048;-71
2022/03/18 05:25:31;;;;;;;19.63;8.10;;;3.50;99.90;;;;;;5073932;28;20061;-71
2022/03/18 05:27:58;;;;;;;13.82;8.48;;;3.50;99.90;;;;;;5073400;28;20056;-71
2022/03/18 05:30:26;;;;;;;18.13;8.57;;;3.40;99.90;;;;;;5072624;28;20060;-71
2022/03/18 05:32:53;;;;;;;14.75;8.45;;;3.40;99.90;;;;;;5072720;28;20481;-71
2022/03/18 05:35:20;;;;;;;16.45;8.30;;;3.30;99.90;;;;;;5083818;28;20068;-72
2022/03/18 05:37:47;;;;;;;12.90;8.80;;;3.30;99.90;;;;;;5083896;28;20051;-71
2022/03/18 05:40:17;;;;;;;15.23;8.70;;;3.30;99.90;;;;;;5063722;28;20052;-70
2022/03/18 05:42:44;;;;;;;16.17;8.65;;;3.20;99.90;;;;;;5068224;28;20044;-70
2022/03/18 05:45:12;;;;;;;18.13;8.60;;;3.10;99.90;;;;;;5087971;28;20052;-70
2022/03/18 05:47:40;;;;;;;12.20;8.27;;;3.10;99.90;;;;;;5069178;28;20141;-70
2022/03/18 05:50:08;;;;;;;16.55;9.63;;;3.10;99.90;;;;;;5086324;28;20120;-72
2022/03/18 05:52:36;;;;;;;14.80;8.65;;;3.00;99.90;;;;;;5067808;28;20063;-71
2022/03/18 05:55:04;;;;;;;14.60;8.15;;;3.00;99.90;;;;;;5067209;28;20116;-70
2022/03/18 05:57:30;;;;;;;12.63;8.63;;;3.00;99.90;;;;;;5083376;28;20101;-71
2022/03/18 05:59:58;;;;;;;14.45;9.13;;;3.00;99.90;;;;;;5089676;28;20131;-72
2022/03/18 06:02:26;;;;;;;13.73;8.75;;;3.00;99.90;;;;;;5065049;28;20109;-71
2022/03/18 06:04:54;;;;;;;13.68;8.85;;;3.00;99.90;;;;;;5066640;28;20052;-71
2022/03/18 06:07:21;;;;;;;15.48;8.30;;;3.00;99.90;;;;;;5084631;28;20109;-73
2022/03/18 06:12:32;;;;;;;16.30;8.43;;;3.00;99.90;;;;;;5084283;28;20051;-71
2022/03/18 06:14:59;;;;;;;15.20;9.00;;;3.00;99.90;;;;;;5083821;28;20044;-71
2022/03/18 06:17:26;;;;;;;14.40;9.50;;;3.10;99.90;;;;;;5067170;28;20064;-71
2022/03/18 06:19:54;;;;;;;14.50;9.25;;;3.10;99.90;;;;;;5085084;28;20060;-72
2022/03/18 06:22:21;;;;;;;10.73;8.85;;;3.10;99.90;;;;;;5085345;28;20488;-73
2022/03/18 06:24:48;;;;;;;19.52;10.82;;;3.20;99.90;;;;;;5083768;28;20095;-72
2022/03/18 06:27:15;;;;;;;12.80;9.18;;;3.20;99.90;;;;;;5084526;28;20054;-71
2022/03/18 06:29:43;;;;;;;13.30;9.27;;;3.20;99.90;;;;;;5066094;28;20109;-72
2022/03/18 06:32:10;;;;;;;16.23;9.63;;;3.30;99.90;;;;;;5086427;28;20044;-71
2022/03/18 06:34:38;;;;;;;13.10;8.88;;;3.30;99.90;;;;;;5086299;28;20121;-72
2022/03/18 06:37:06;;;;;;;16.65;9.82;;;3.40;99.90;;;;;;5065963;28;20056;-72
2022/03/18 06:39:34;;;;;;;20.77;10.02;;;3.50;99.90;;;;;;5080055;28;20040;-72
2022/03/18 06:42:01;;;;;;;16.63;10.82;;;3.50;99.90;;;;;;5081305;28;20115;-71
2022/03/18 06:44:28;;;;;;;15.93;9.65;;;3.60;99.90;;;;;;5076923;28;20059;-71
2022/03/18 06:46:55;;;;;;;18.80;9.90;;;3.70;99.90;;;;;;5060584;28;20125;-72
2022/03/18 06:49:22;;;;;;;15.93;9.90;;;3.80;99.90;;;;;;5092621;28;20099;-71
2022/03/18 06:51:49;;;;;;;14.68;9.75;;;4.00;99.90;;;;;;5065946;28;20109;-70
2022/03/18 06:54:17;;;;;;;17.05;10.30;;;4.10;99.90;;;;;;5091524;28;20048;-73
2022/03/18 06:56:44;;;;;;;14.93;10.02;;;4.50;99.90;;;;;;5094471;28;20043;-72
2022/03/18 06:59:11;;;;;;;12.45;8.50;;;5.20;99.90;;;;;;5087514;28;20101;-72
2022/03/18 07:01:38;;;;;;;15.98;9.50;;;5.70;99.90;;;;;;5071975;28;20117;-72
2022/03/18 07:04:05;;;;;;;15.88;8.93;;;6.20;99.90;;;;;;5090598;28;20060;-73
2022/03/18 07:06:32;;;;;;;11.80;9.02;;;6.60;99.90;;;;;;5074777;28;20142;-73
2022/03/18 07:08:58;;;;;;;14.93;9.82;;;6.80;99.90;;;;;;5071829;28;20075;-72
2022/03/18 07:11:27;;;;;;;14.40;9.13;;;7.20;99.90;;;;;;5072480;28;20059;-72
2022/03/18 07:13:54;;;;;;;12.30;8.63;;;7.60;99.90;;;;;;5070560;28;20392;-73
2022/03/18 07:19:05;;;;;;;12.30;8.50;;;9.10;99.90;;;;;;5072780;28;20044;-72
2022/03/18 07:21:33;;;;;;;10.95;8.15;;;10.20;99.90;;;;;;5069048;28;20129;-72
2022/03/18 07:24:00;;;;;;;10.27;7.40;;;11.10;99.90;;;;;;5092076;28;20557;-71
2022/03/18 07:26:28;;;;;;;14.27;8.23;;;12.10;99.90;;;;;;5069523;28;20060;-72
2022/03/18 07:28:56;;;;;;;11.35;7.47;;;12.90;99.90;;;;;;5094346;28;20052;-73
2022/03/18 07:31:23;;;;;;;14.73;8.20;;;13.50;99.90;;;;;;5094046;28;20385;-73
2022/03/18 07:33:51;;;;;;;14.13;6.93;;;13.70;99.90;;;;;;5095006;28;20093;-74
2022/03/18 07:36:18;;;;;;;13.07;7.43;;;14.30;99.90;;;;;;5093789;28;20135;-73
2022/03/18 07:38:45;;;;;;;11.57;6.97;;;14.70;99.90;;;;;;5077014;28;20056;-72
2022/03/18 07:41:12;;;;;;;14.07;7.45;;;15.30;99.90;;;;;;5075772;28;20055;-72
2022/03/18 07:43:41;;;;;;;11.73;6.80;;;15.70;99.90;;;;;;5076683;28;20054;-72
2022/03/18 07:46:07;;;;;;;15.57;7.07;;;16.10;99.90;;;;;;5094043;28;20055;-72
2022/03/18 07:48:36;;;;;;;12.40;7.28;;;16.40;99.90;;;;;;5093915;28;20105;-73
2022/03/18 07:51:02;;;;;;;18.30;7.47;;;16.30;99.40;;;;;;5092779;28;20055;-72
2022/03/18 07:53:29;;;;;;;17.95;8.30;;;16.70;99.40;;;;;;5076380;28;20093;-73
2022/03/18 07:55:56;;;;;;;12.38;7.07;;;16.90;98.30;;;;;;5075523;28;20449;-73
2022/03/18 07:58:23;;;;;;;13.98;7.07;;;17.10;96.80;;;;;;5093454;28;20059;-73
2022/03/18 08:00:51;;;;;;;11.68;7.85;;;17.30;95.80;;;;;;5089909;28;20113;-73
2022/03/18 08:03:18;;;;;;;14.77;7.00;;;17.30;94.20;;;;;;5093208;28;20102;-74
2022/03/18 08:05:47;;;;;;;17.45;7.70;;;17.60;94.70;;;;;;5075695;28;20120;-73
2022/03/18 08:08:14;;;;;;;11.52;6.55;;;18.00;93.80;;;;;;5094018;28;20479;-73
2022/03/18 08:10:41;;;;;;;12.18;6.60;;;18.40;92.90;;;;;;5073930;28;20115;-73
2022/03/18 08:13:08;;;;;;;17.02;7.03;;;18.80;91.20;;;;;;5094277;28;20048;-73
2022/03/18 08:15:35;;;;;;;15.32;6.85;;;19.10;90.10;;;;;;5076021;28;20055;-73
2022/03/18 08:18:03;;;;;;;11.30;6.43;;;19.40;88.20;;;;;;5074670;28;20044;-74
2022/03/18 08:20:30;;;;;;;12.70;6.50;;;19.80;86.40;;;;;;5076106;28;20044;-73
2022/03/18 08:22:57;;;;;;;12.13;6.50;;;20.30;85.90;;;;;;5093910;28;20055;-73
2022/03/18 08:25:24;;;;;;;14.32;6.47;;;20.50;84.70;;;;;;5075019;28;20074;-73
2022/03/18 08:27:51;;;;;;;15.20;6.68;;;20.70;84.00;;;;;;5093754;28;20453;-75
2022/03/18 08:30:18;;;;;;;13.23;6.22;;;20.70;82.20;;;;;;5074837;28;20052;-74
2022/03/18 08:32:46;;;;;;;11.10;5.30;;;20.70;80.70;;;;;;5092887;28;20048;-73
2022/03/18 08:35:15;;;;;;;11.98;6.30;;;21.10;79.90;;;;;;5093501;28;20044;-74
2022/03/18 08:37:57;;;;;;;14.32;5.38;;;21.40;78.90;;;;;;5075106;28;20450;-74
2022/03/18 08:40:24;;;;;;;18.02;6.78;;;21.60;78.00;;;;;;5092528;28;20078;-75
2022/03/18 08:42:51;;;;;;;13.45;5.82;;;21.70;77.80;;;;;;5075090;28;20117;-74
2022/03/18 08:45:18;;;;;;;9.95;5.68;;;21.90;77.20;;;;;;5072510;28;20063;-73
2022/03/18 08:47:46;;;;;;;14.75;6.72;;;22.10;76.20;;;;;;5074739;28;20135;-74
2022/03/18 08:50:15;;;;;;;13.80;5.63;;;21.80;76.10;;;;;;5093432;28;20048;-74
2022/03/18 08:52:43;;;;;;;17.30;6.32;;;21.80;75.60;;;;;;5074236;28;20054;-73
2022/03/18 08:55:11;;;;;;;14.70;6.05;;;21.80;76.10;;;;;;5075268;28;20086;-74
2022/03/18 08:57:38;;;;;;;12.60;5.88;;;21.80;76.30;;;;;;5079326;28;20134;-75
2022/03/18 09:00:07;;;;;;;14.32;5.63;;;22.20;75.20;;;;;;5074513;28;20109;-75
2022/03/18 09:02:35;;;;;;;20.42;6.05;;;22.50;74.70;;;;;;5092589;28;20048;-74
2022/03/18 09:05:02;;;;;;;14.68;5.47;;;22.60;74.30;;;;;;5092548;28;20410;-75
2022/03/18 09:07:30;;;;;;;11.68;5.70;;;23.10;73.50;;;;;;5074774;28;20165;-74
2022/03/18 09:09:57;;;;;;;13.35;5.53;;;22.80;71.60;;;;;;5093206;28;20052;-74
2022/03/18 09:12:24;;;;;;;12.07;5.32;;;23.10;72.40;;;;;;5073336;28;20128;-74
2022/03/18 09:14:51;;;;;;;14.40;6.22;;;23.20;72.00;;;;;;5092941;28;20063;-74
2022/03/18 09:17:18;;;;;;;10.60;5.38;;;23.30;71.60;;;;;;5092304;28;20412;-74
2022/03/18 09:19:46;;;;;;;15.93;5.53;;;23.50;70.90;;;;;;5092328;28;20083;-74
2022/03/18 09:22:16;;;;;;;11.55;5.65;;;24.00;70.00;;;;;;5074024;28;20157;-74
2022/03/18 09:24:45;;;;;;;13.70;4.90;;;24.20;69.60;;;;;;5074566;28;20044;-74
2022/03/18 09:27:12;;;;;;;16.50;5.75;;;24.40;67.80;;;;;;5092171;28;20105;-74
2022/03/18 09:29:39;;;;;;;12.38;5.32;;;24.50;67.90;;;;;;5074686;28;20052;-74
2022/03/18 09:32:08;;;;;;;14.50;5.68;;;24.70;67.40;;;;;;5074225;28;20097;-74
2022/03/18 09:34:35;;;;;;;13.18;5.43;;;24.80;66.90;;;;;;5092049;28;20125;-74
2022/03/18 09:37:03;;;;;;;16.40;6.40;;;24.50;66.20;;;;;;5092002;28;20121;-74
2022/03/18 09:39:29;;;;;;;10.45;4.97;;;24.40;66.70;;;;;;5074641;28;20074;-74
2022/03/18 09:41:58;;;;;;;12.35;5.32;;;24.70;66.50;;;;;;5090431;28;20403;-75
2022/03/18 09:44:24;;;;;;;15.32;5.97;;;24.80;65.90;;;;;;5074460;28;20047;-74
2022/03/18 09:46:52;;;;;;;13.95;5.57;;;24.60;66.30;;;;;;5073018;28;20149;-74
2022/03/18 09:49:22;;;;;;;11.15;4.97;;;24.80;65.50;;;;;;5091757;28;20044;-74
2022/03/18 09:51:49;;;;;;;14.38;5.97;;;24.50;65.50;;;;;;5086751;28;20063;-74
2022/03/18 09:54:17;;;;;;;10.32;5.20;;;24.20;65.90;;;;;;5091390;28;20052;-74
2022/03/18 09:56:46;;;;;;;14.25;5.68;;;24.10;65.60;;;;;;5094072;28;20126;-74
2022/03/18 09:59:15;;;;;;;11.70;4.70;;;24.80;65.80;;;;;;5073908;28;20055;-74
2022/03/18 10:01:42;;;;;;;12.83;5.10;;;24.70;64.90;;;;;;5073672;28;20055;-74
2022/03/18 10:04:11;;;;;;;13.70;6.30;;;24.70;64.90;;;;;;5091487;28;20048;-75
2022/03/18 10:06:41;;;;;;;14.98;5.40;;;24.70;65.10;;;;;;5073967;28;20063;-74
2022/03/18 10:09:08;;;;;;;11.95;5.53;;;25.20;64.70;;;;;;5071516;28;20048;-74
2022/03/18 10:11:37;;;;;;;13.77;5.15;;;25.10;63.90;;;;;;5073443;28;20105;-75
2022/03/18 10:14:06;;;;;;;13.55;5.57;;;25.20;64.00;;;;;;5091702;28;20047;-73
2022/03/18 10:16:36;;;;;;;11.65;5.00;;;25.10;63.60;;;;;;5090257;28;20123;-75
2022/03/18 10:19:06;;;;;;;12.45;4.85;;;25.20;63.20;;;;;;5091457;28;20117;-75
2022/03/18 10:21:34;;;;;;;11.27;4.80;;;25.20;63.40;;;;;;5073645;28;20059;-75
2022/03/18 10:24:08;;;;;;;11.00;4.90;;;25.10;63.20;;;;;;5072456;28;20051;-74
2022/03/18 10:26:39;;;;;;;13.88;4.95;;;25.10;61.70;;;;;;5089831;28;20044;-74
2022/03/18 10:29:11;;;;;;;11.95;5.43;;;25.60;61.50;;;;;;5073465;28;20389;-75
2022/03/18 10:31:45;;;;;;;10.65;4.57;;;25.80;61.70;;;;;;5072903;28;20076;-74
2022/03/18 10:37:08;;;;;;;16.38;5.43;;;25.90;61.50;;;;;;5087787;28;20121;-74
2022/03/18 10:39:37;;;;;;;12.25;5.00;;;25.40;61.30;;;;;;5073691;28;20056;-74
2022/03/18 10:42:06;;;;;;;14.35;5.10;;;26.30;60.80;;;;;;5091266;28;20043;-74
2022/03/18 10:44:55;;;;;;;10.55;4.70;;;26.60;60.20;;;;;;5072398;28;20472;-74
2022/03/18 10:47:29;;;;;;;11.30;5.03;;;26.30;58.90;;;;;;5064051;28;20055;-74
2022/03/18 10:50:19;;;;;;;13.50;4.55;;;26.80;58.90;;;;;;5073173;28;20052;-75
2022/03/18 10:53:07;;;;;;;10.25;4.15;;;26.70;57.80;;;;;;5055137;28;20116;-75
2022/03/18 10:55:36;;;;;;;13.27;4.20;;;26.60;58.10;;;;;;5072843;28;20060;-74
2022/03/18 10:58:05;;;;;;;13.52;4.78;;;26.30;59.50;;;;;;5076806;28;20181;-74
2022/03/18 11:00:34;;;;;;;10.73;5.00;;;26.60;59.40;;;;;;5068288;28;20499;-74
2022/03/18 11:03:03;;;;;;;10.15;4.57;;;26.40;59.00;;;;;;5069716;28;20089;-74
2022/03/18 11:05:32;;;;;;;12.23;4.30;;;26.20;58.80;;;;;;5072441;28;20044;-74
2022/03/18 11:08:01;;;;;;;10.90;4.18;;;26.60;58.70;;;;;;5071457;28;20047;-74
2022/03/18 11:13:15;;;;;;;10.25;4.57;;;26.60;58.40;;;;;;5090502;28;20162;-74
2022/03/18 11:15:44;;;;;;;12.32;5.18;;;26.40;58.80;;;;;;5072460;28;20105;-74
2022/03/18 11:18:14;;;;;;;11.43;4.70;;;26.70;58.20;;;;;;5091123;28;20052;-74
2022/03/18 11:20:43;;;;;;;;;;;26.70;58.10;;;;;;5090344;28;20129;-74
2022/03/18 11:23:16;;;;;;;10.40;4.88;;;26.20;58.30;;;;;;5090495;28;20334;-75
2022/03/18 11:25:44;;;;;;;10.95;4.72;;;26.60;59.00;;;;;;5068414;28;20060;-75
2022/03/18 11:28:15;;;;;;;15.95;5.07;;;26.80;59.20;;;;;;5070896;28;20123;-75
2022/03/18 11:30:43;;;;;;;12.60;4.75;;;27.10;58.10;;;;;;5056628;28;20051;-75
2022/03/18 11:33:22;;;;;;;12.48;4.60;;;27.30;58.40;;;;;;5055240;28;20056;-75
2022/03/18 11:36:10;;;;;;;11.43;3.65;;;27.60;57.70;;;;;;5067643;28;20050;-75
2022/03/18 11:39:07;;;;;;;13.38;4.30;;;28.20;57.10;;;;;;5067167;28;20056;-75
2022/03/18 11:41:57;;;;;;;9.80;3.65;;;28.70;56.40;;;;;;5062139;28;20049;-74
2022/03/18 11:44:52;;;;;;;10.18;4.18;;;28.60;55.90;;;;;;5052026;28;20055;-74
2022/03/18 11:47:38;;;;;;;9.18;3.83;;;28.80;55.10;;;;;;5065487;28;20056;-75
2022/03/18 11:50:40;;;;;;;12.88;4.63;;;28.70;55.30;;;;;;5065083;28;20532;-74
2022/03/18 11:53:08;;;;;;;9.65;4.03;;;28.20;55.40;;;;;;5060417;28;20110;-75
2022/03/18 11:55:35;;;;;;;12.93;4.50;;;28.10;57.00;;;;;;5061411;28;20052;-74
2022/03/18 11:58:02;;;;;;;10.48;4.13;;;28.20;56.90;;;;;;5062691;28;20389;-75
2022/03/18 12:00:43;;;;;;;12.27;3.92;;;28.60;56.40;;;;;;5062869;28;20064;-75
2022/03/18 12:03:20;;;;;;;38.08;7.03;;;28.90;54.90;;;;;;5066894;28;20055;-75
2022/03/18 12:05:56;;;;;;;8.82;4.30;;;28.70;55.40;;;;;;5065051;28;20450;-75
2022/03/18 12:08:58;;;;;;;11.20;3.92;;;28.70;55.50;;;;;;5056939;28;20114;-76
2022/03/18 12:11:37;;;;;;;11.55;3.47;;;28.60;55.10;;;;;;5063857;28;20547;-75
2022/03/18 12:14:06;;;;;;;14.60;4.32;;;27.70;54.60;;;;;;5070414;28;20472;-76
2022/03/18 12:16:33;;;;;;;11.93;4.43;;;25.70;57.30;;;;;;5072427;28;20079;-76
2022/03/18 12:19:01;;;;;;;11.20;4.20;;;25.60;59.10;;;;;;5072859;28;20097;-76
2022/03/18 12:21:38;;;;;;;13.48;3.55;;;26.20;58.90;;;;;;5071741;28;20056;-76
2022/03/18 12:24:07;;;;;;;11.77;3.40;;;26.20;57.20;;;;;;5072420;28;20041;-76
2022/03/18 12:26:34;;;;;;;;;;;25.80;58.30;;;;;;5076184;28;20465;-76
2022/03/18 12:29:01;;;;;;;10.60;4.22;;;24.80;59.10;;;;;;5091643;28;19924;-76
2022/03/18 12:31:28;;;;;;;11.07;3.88;;;25.20;59.90;;;;;;5075438;28;20084;-75
2022/03/18 12:33:59;;;;;;;12.77;3.85;;;26.10;59.30;;;;;;5075930;28;20048;-76
2022/03/18 12:36:28;;;;;;;10.55;4.15;;;26.70;58.60;;;;;;5091472;28;20048;-76
2022/03/18 12:39:26;;;;;;;12.85;4.18;;;27.00;58.30;;;;;;5068355;28;20059;-76
2022/03/18 12:42:04;;;;;;;12.18;4.03;;;27.30;57.80;;;;;;5045444;28;20104;-76
2022/03/18 12:44:32;;;;;;;14.43;4.60;;;27.20;57.50;;;;;;5092588;28;20052;-76
2022/03/18 12:47:00;;;;;;;13.10;4.25;;;25.40;59.10;;;;;;5093233;28;20192;-75
2022/03/18 12:49:32;;;;;;;12.38;4.47;;;25.10;60.80;;;;;;5093159;28;20553;-75
2022/03/18 12:51:59;;;;;;;22.60;5.55;;;25.60;60.50;;;;;;5074507;28;20070;-75
2022/03/18 12:54:27;;;;;;;12.95;4.15;;;25.90;60.50;;;;;;5090015;28;20040;-75
2022/03/18 12:56:54;;;;;;;19.35;4.85;;;26.20;59.90;;;;;;5093450;28;20055;-75
2022/03/18 12:59:21;;;;;;;15.10;4.22;;;26.10;59.90;;;;;;5074562;28;20052;-75
2022/03/18 13:01:52;;;;;;;11.52;4.30;;;26.00;60.00;;;;;;5093119;28;20091;-75
2022/03/18 13:04:20;;;;;;;10.35;3.58;;;26.30;59.70;;;;;;5091881;28;20044;-74
2022/03/18 13:06:50;;;;;;;15.88;4.30;;;26.80;59.30;;;;;;5093310;28;20139;-74
2022/03/18 13:09:18;;;;;;;17.27;4.13;;;27.00;58.70;;;;;;5093040;28;20052;-74